PWSweather.com
Personal Weather Stations
Station Observations
CW4114
Near Downtown, Rogers City, MI 49779

Near DowntownRogers City, MI 49779

Lat: 45.417443, Lon: -83.810642

Elevation: 605

Station Type: Davis Vantage Pro2 w/Solar

Latest ConditionsUpdated 7:19:35 AM EDT Wednesday, Jul 29, 2015
Currently Today's Max Today's Min Today's Average
Temperature 72.3°F22.4°C 77.4°F25.2°C 70.7°F21.5°C 73.6°F23.1°C
Dew Point 66.6°F19.2°C 67.8°F19.9°C 65.8°F18.8°C 66.8°F19.3°C
Winds 4.0 mph SW6.4 kmh SW 4.0 mph WSW6.4 kmh WSW - 3.0 mph 4.8 kmh
Wind Gusts 11.0 mph17.7 kmh 11.0 mph17.7 kmh - -
Humidity 82% 85% 72% 79%
Pressure 29.83 in1010.2 mb 29.91 in1012.9 mb 29.83 in1010.2 mb -
Hour Temp Dew Point Humidity Winds Wind Gusts Pressure Precip Precip Rate Daily Precip Total
07:19 AM 72.3°F22.4°C 66.6°F19.2°C 82% 4.0 mph SW6.4 kmh SW 11.0 mph17.7 kmh 29.83 in1010.2 mb 0.00 in0.0 mm 0.00 in0.0 mm 0.00 in0.0 mm
07:14 AM 72.0°F22.2°C 66.6°F19.2°C 83% 4.0 mph SW6.4 kmh SW 10.1 mph16.3 kmh 29.84 in1010.5 mb 0.00 in0.0 mm 0.00 in0.0 mm 0.00 in0.0 mm
07:09 AM 71.6°F22.0°C 66.6°F19.2°C 84% 4.0 mph SSW6.4 kmh SSW 8.9 mph14.3 kmh 29.84 in1010.5 mb 0.00 in0.0 mm 0.00 in0.0 mm 0.00 in0.0 mm
07:04 AM 71.2°F21.8°C 66.2°F19.0°C 84% 4.0 mph WSW6.4 kmh WSW 8.9 mph14.3 kmh 29.84 in1010.5 mb 0.00 in0.0 mm 0.00 in0.0 mm 0.00 in0.0 mm
06:59 AM 71.2°F21.8°C 66.2°F19.0°C 84% 2.9 mph SW4.7 kmh SW 8.9 mph14.3 kmh 29.84 in1010.5 mb 0.00 in0.0 mm 0.00 in0.0 mm 0.00 in0.0 mm
06:54 AM 71.1°F21.7°C 66.4°F19.1°C 85% 4.0 mph SW6.4 kmh SW 9.0 mph14.5 kmh 29.84 in1010.5 mb 0.00 in0.0 mm 0.00 in0.0 mm 0.00 in0.0 mm
06:49 AM 71.1°F21.7°C 66.4°F19.1°C 85% 4.0 mph SSW6.4 kmh SSW 6.9 mph11.1 kmh 29.84 in1010.5 mb 0.00 in0.0 mm 0.00 in0.0 mm 0.00 in0.0 mm
06:44 AM 70.9°F21.6°C 66.2°F19.0°C 85% 4.0 mph SW6.4 kmh SW 8.1 mph13.0 kmh 29.84 in1010.5 mb 0.00 in0.0 mm 0.00 in0.0 mm 0.00 in0.0 mm
06:39 AM 70.9°F21.6°C 66.2°F19.0°C 85% 4.0 mph S6.4 kmh S 9.0 mph14.5 kmh 29.84 in1010.5 mb 0.00 in0.0 mm 0.00 in0.0 mm 0.00 in0.0 mm
06:34 AM 70.7°F21.5°C 66.0°F18.9°C 85% 4.0 mph SW6.4 kmh SW 8.1 mph13.0 kmh 29.84 in1010.5 mb 0.00 in0.0 mm 0.00 in0.0 mm 0.00 in0.0 mm
06:29 AM 70.7°F21.5°C 66.0°F18.9°C 85% 4.0 mph SW6.4 kmh SW 9.0 mph14.5 kmh 29.84 in1010.5 mb 0.00 in0.0 mm 0.00 in0.0 mm 0.00 in0.0 mm
06:24 AM 70.7°F21.5°C 66.0°F18.9°C 85% 4.0 mph WSW6.4 kmh WSW 8.1 mph13.0 kmh 29.84 in1010.5 mb 0.00 in0.0 mm 0.00 in0.0 mm 0.00 in0.0 mm
06:19 AM 70.7°F21.5°C 66.0°F18.9°C 85% 4.0 mph WSW6.4 kmh WSW 8.1 mph13.0 kmh 29.84 in1010.5 mb 0.00 in0.0 mm 0.00 in0.0 mm 0.00 in0.0 mm
06:14 AM 70.7°F21.5°C 66.0°F18.9°C 85% 4.0 mph WSW6.4 kmh WSW 6.0 mph9.7 kmh 29.84 in1010.5 mb 0.00 in0.0 mm 0.00 in0.0 mm 0.00 in0.0 mm
06:09 AM 70.9°F21.6°C 66.2°F19.0°C 85% 4.0 mph SW6.4 kmh SW 6.9 mph11.1 kmh 29.84 in1010.5 mb 0.00 in0.0 mm 0.00 in0.0 mm 0.00 in0.0 mm
06:04 AM 70.9°F21.6°C 66.2°F19.0°C 85% 4.0 mph WSW6.4 kmh WSW 8.9 mph14.3 kmh 29.84 in1010.5 mb 0.00 in0.0 mm 0.00 in0.0 mm 0.00 in0.0 mm
05:59 AM 70.9°F21.6°C 66.2°F19.0°C 85% 4.0 mph SW6.4 kmh SW 8.1 mph13.0 kmh 29.85 in1010.8 mb 0.00 in0.0 mm 0.00 in0.0 mm 0.00 in0.0 mm
05:54 AM 70.9°F21.6°C 65.8°F18.8°C 84% 4.0 mph SW6.4 kmh SW 8.1 mph13.0 kmh 29.85 in1010.8 mb 0.00 in0.0 mm 0.00 in0.0 mm 0.00 in0.0 mm
05:49 AM 71.1°F21.7°C 66.0°F18.9°C 84% 2.9 mph SW4.7 kmh SW 8.1 mph13.0 kmh 29.85 in1010.8 mb 0.00 in0.0 mm 0.00 in0.0 mm 0.00 in0.0 mm
05:44 AM 71.1°F21.7°C 66.0°F18.9°C 84% 2.9 mph SW4.7 kmh SW 6.9 mph11.1 kmh 29.85 in1010.8 mb 0.00 in0.0 mm 0.00 in0.0 mm 0.00 in0.0 mm
05:39 AM 71.1°F21.7°C 66.0°F18.9°C 84% 2.9 mph WSW4.7 kmh WSW 6.0 mph9.7 kmh 29.84 in1010.5 mb 0.00 in0.0 mm 0.00 in0.0 mm 0.00 in0.0 mm
05:34 AM 71.1°F21.7°C 66.0°F18.9°C 84% 2.9 mph WSW4.7 kmh WSW 8.0 mph12.9 kmh 29.84 in1010.5 mb 0.00 in0.0 mm 0.00 in0.0 mm 0.00 in0.0 mm
05:29 AM 71.2°F21.8°C 66.2°F19.0°C 84% 2.9 mph SSW4.7 kmh SSW 8.0 mph12.9 kmh 29.84 in1010.5 mb 0.00 in0.0 mm 0.00 in0.0 mm 0.00 in0.0 mm
05:24 AM 71.2°F21.8°C 66.2°F19.0°C 84% 2.9 mph SW4.7 kmh SW 8.1 mph13.0 kmh 29.84 in1010.5 mb 0.00 in0.0 mm 0.00 in0.0 mm 0.00 in0.0 mm
05:19 AM 71.2°F21.8°C 66.2°F19.0°C 84% 2.9 mph SW4.7 kmh SW 8.1 mph13.0 kmh 29.84 in1010.5 mb 0.00 in0.0 mm 0.00 in0.0 mm 0.00 in0.0 mm
05:14 AM 71.2°F21.8°C 66.2°F19.0°C 84% 2.9 mph WSW4.7 kmh WSW 6.9 mph11.1 kmh 29.84 in1010.5 mb 0.00 in0.0 mm 0.00 in0.0 mm 0.00 in0.0 mm
05:09 AM 71.4°F21.9°C 66.4°F19.1°C 84% 2.9 mph WSW4.7 kmh WSW 6.0 mph9.7 kmh 29.84 in1010.5 mb 0.00 in0.0 mm 0.00 in0.0 mm 0.00 in0.0 mm
05:04 AM 71.4°F21.9°C 66.4°F19.1°C 84% 2.9 mph SW4.7 kmh SW 6.9 mph11.1 kmh 29.84 in1010.5 mb 0.00 in0.0 mm 0.00 in0.0 mm 0.00 in0.0 mm
04:59 AM 71.4°F21.9°C 66.4°F19.1°C 84% 2.9 mph SW4.7 kmh SW 6.0 mph9.7 kmh 29.84 in1010.5 mb 0.00 in0.0 mm 0.00 in0.0 mm 0.00 in0.0 mm
04:54 AM 71.4°F21.9°C 66.4°F19.1°C 84% 2.9 mph SSE4.7 kmh SSE 6.9 mph11.1 kmh 29.84 in1010.5 mb 0.00 in0.0 mm 0.00 in0.0 mm 0.00 in0.0 mm
04:49 AM 71.6°F22.0°C 66.2°F19.0°C 83% 2.0 mph SW3.2 kmh SW 7.0 mph11.3 kmh 29.84 in1010.5 mb 0.00 in0.0 mm 0.00 in0.0 mm 0.00 in0.0 mm
04:44 AM 71.8°F22.1°C 66.4°F19.1°C 83% 2.0 mph WSW3.2 kmh WSW 6.0 mph9.7 kmh 29.84 in1010.5 mb 0.00 in0.0 mm 0.00 in0.0 mm 0.00 in0.0 mm
04:39 AM 71.8°F22.1°C 66.4°F19.1°C 83% 2.0 mph SW3.2 kmh SW 4.9 mph7.9 kmh 29.84 in1010.5 mb 0.00 in0.0 mm 0.00 in0.0 mm 0.00 in0.0 mm
04:34 AM 72.0°F22.2°C 66.6°F19.2°C 83% 2.0 mph SSW3.2 kmh SSW 5.0 mph8.0 kmh 29.84 in1010.5 mb 0.00 in0.0 mm 0.00 in0.0 mm 0.00 in0.0 mm
04:29 AM 72.1°F22.3°C 66.7°F19.3°C 83% 2.0 mph SW3.2 kmh SW 4.0 mph6.4 kmh 29.84 in1010.5 mb 0.00 in0.0 mm 0.00 in0.0 mm 0.00 in0.0 mm
04:24 AM 72.3°F22.4°C 66.6°F19.2°C 82% 2.0 mph SW3.2 kmh SW 6.0 mph9.7 kmh 29.84 in1010.5 mb 0.00 in0.0 mm 0.00 in0.0 mm 0.00 in0.0 mm
04:19 AM 72.3°F22.4°C 66.6°F19.2°C 82% 2.0 mph SSW3.2 kmh SSW 6.0 mph9.7 kmh 29.84 in1010.5 mb 0.00 in0.0 mm 0.00 in0.0 mm 0.00 in0.0 mm
04:14 AM 72.3°F22.4°C 66.6°F19.2°C 82% 2.0 mph SW3.2 kmh SW 4.0 mph6.4 kmh 29.84 in1010.5 mb 0.00 in0.0 mm 0.00 in0.0 mm 0.00 in0.0 mm
04:09 AM 72.3°F22.4°C 66.6°F19.2°C 82% 2.0 mph WSW3.2 kmh WSW 8.1 mph13.0 kmh 29.85 in1010.8 mb 0.00 in0.0 mm 0.00 in0.0 mm 0.00 in0.0 mm
04:04 AM 72.5°F22.5°C 66.7°F19.3°C 82% 2.0 mph S3.2 kmh S 8.1 mph13.0 kmh 29.85 in1010.8 mb 0.00 in0.0 mm 0.00 in0.0 mm 0.00 in0.0 mm
03:59 AM 72.7°F22.6°C 66.6°F19.2°C 81% 2.0 mph SSW3.2 kmh SSW 6.0 mph9.7 kmh 29.85 in1010.8 mb 0.00 in0.0 mm 0.00 in0.0 mm 0.00 in0.0 mm
03:54 AM 72.7°F22.6°C 66.6°F19.2°C 81% 2.9 mph WSW4.7 kmh WSW 6.0 mph9.7 kmh 29.86 in1011.2 mb 0.00 in0.0 mm 0.00 in0.0 mm 0.00 in0.0 mm
03:49 AM 72.7°F22.6°C 66.6°F19.2°C 81% 2.9 mph SW4.7 kmh SW 6.0 mph9.7 kmh 29.86 in1011.2 mb 0.00 in0.0 mm 0.00 in0.0 mm 0.00 in0.0 mm
03:44 AM 72.9°F22.7°C 66.7°F19.3°C 81% 2.9 mph SW4.7 kmh SW 6.9 mph11.1 kmh 29.86 in1011.2 mb 0.00 in0.0 mm 0.00 in0.0 mm 0.00 in0.0 mm
03:39 AM 73.0°F22.8°C 66.9°F19.4°C 81% 2.9 mph SW4.7 kmh SW 6.0 mph9.7 kmh 29.87 in1011.5 mb 0.00 in0.0 mm 0.00 in0.0 mm 0.00 in0.0 mm
03:34 AM 73.2°F22.9°C 67.1°F19.5°C 81% 2.0 mph SW3.2 kmh SW 6.0 mph9.7 kmh 29.87 in1011.5 mb 0.00 in0.0 mm 0.00 in0.0 mm 0.00 in0.0 mm
03:29 AM 73.2°F22.9°C 66.7°F19.3°C 80% 2.0 mph SW3.2 kmh SW 4.9 mph7.9 kmh 29.87 in1011.5 mb 0.00 in0.0 mm 0.00 in0.0 mm 0.00 in0.0 mm
03:24 AM 73.6°F23.1°C 67.1°F19.5°C 80% 2.0 mph SW3.2 kmh SW 7.0 mph11.3 kmh 29.87 in1011.5 mb 0.00 in0.0 mm 0.00 in0.0 mm 0.00 in0.0 mm
03:19 AM 73.6°F23.1°C 67.1°F19.5°C 80% 2.9 mph SW4.7 kmh SW 4.9 mph7.9 kmh 29.88 in1011.9 mb 0.00 in0.0 mm 0.00 in0.0 mm 0.00 in0.0 mm
03:14 AM 73.8°F23.2°C 66.9°F19.4°C 79% 2.9 mph S4.7 kmh S 7.0 mph11.3 kmh 29.88 in1011.9 mb 0.00 in0.0 mm 0.00 in0.0 mm 0.00 in0.0 mm
03:09 AM 73.9°F23.3°C 67.1°F19.5°C 79% 2.9 mph SSW4.7 kmh SSW 6.0 mph9.7 kmh 29.88 in1011.9 mb 0.00 in0.0 mm 0.00 in0.0 mm 0.00 in0.0 mm
03:04 AM 74.1°F23.4°C 66.7°F19.3°C 78% 2.0 mph S3.2 kmh S 6.0 mph9.7 kmh 29.88 in1011.9 mb 0.00 in0.0 mm 0.00 in0.0 mm 0.00 in0.0 mm
02:59 AM 74.3°F23.5°C 66.9°F19.4°C 78% 2.9 mph SW4.7 kmh SW 6.0 mph9.7 kmh 29.88 in1011.9 mb 0.00 in0.0 mm 0.00 in0.0 mm 0.00 in0.0 mm
02:54 AM 74.5°F23.6°C 67.1°F19.5°C 78% 2.0 mph WSW3.2 kmh WSW 6.0 mph9.7 kmh 29.89 in1012.2 mb 0.00 in0.0 mm 0.00 in0.0 mm 0.00 in0.0 mm
02:49 AM 74.7°F23.7°C 66.9°F19.4°C 77% 2.0 mph S3.2 kmh S 6.9 mph11.1 kmh 29.89 in1012.2 mb 0.00 in0.0 mm 0.00 in0.0 mm 0.00 in0.0 mm
02:44 AM 74.8°F23.8°C 67.1°F19.5°C 77% 2.9 mph SW4.7 kmh SW 6.9 mph11.1 kmh 29.89 in1012.2 mb 0.00 in0.0 mm 0.00 in0.0 mm 0.00 in0.0 mm
02:39 AM 74.8°F23.8°C 67.1°F19.5°C 77% 2.9 mph SW4.7 kmh SW 6.9 mph11.1 kmh 29.89 in1012.2 mb 0.00 in0.0 mm 0.00 in0.0 mm 0.00 in0.0 mm
02:34 AM 75.0°F23.9°C 66.9°F19.4°C 76% 2.9 mph SSW4.7 kmh SSW 6.9 mph11.1 kmh 29.89 in1012.2 mb 0.00 in0.0 mm 0.00 in0.0 mm 0.00 in0.0 mm
02:29 AM 75.2°F24.0°C 67.1°F19.5°C 76% 2.9 mph WSW4.7 kmh WSW 4.9 mph7.9 kmh 29.89 in1012.2 mb 0.00 in0.0 mm 0.00 in0.0 mm 0.00 in0.0 mm
02:24 AM 75.4°F24.1°C 67.3°F19.6°C 76% 2.9 mph WSW4.7 kmh WSW 6.9 mph11.1 kmh 29.89 in1012.2 mb 0.00 in0.0 mm 0.00 in0.0 mm 0.00 in0.0 mm
02:19 AM 75.4°F24.1°C 66.9°F19.4°C 75% 2.9 mph SW4.7 kmh SW 6.9 mph11.1 kmh 29.89 in1012.2 mb 0.00 in0.0 mm 0.00 in0.0 mm 0.00 in0.0 mm
02:14 AM 75.6°F24.2°C 67.1°F19.5°C 75% 2.9 mph WSW4.7 kmh WSW 6.9 mph11.1 kmh 29.90 in1012.5 mb 0.00 in0.0 mm 0.00 in0.0 mm 0.00 in0.0 mm
02:09 AM 75.6°F24.2°C 67.1°F19.5°C 75% 2.9 mph SW4.7 kmh SW 6.9 mph11.1 kmh 29.90 in1012.5 mb 0.00 in0.0 mm 0.00 in0.0 mm 0.00 in0.0 mm
02:04 AM 75.6°F24.2°C 67.1°F19.5°C 75% 2.9 mph SW4.7 kmh SW 6.9 mph11.1 kmh 29.89 in1012.2 mb 0.00 in0.0 mm 0.00 in0.0 mm 0.00 in0.0 mm
01:59 AM 75.7°F24.3°C 67.3°F19.6°C 75% 4.0 mph SW6.4 kmh SW 8.1 mph13.0 kmh 29.89 in1012.2 mb 0.00 in0.0 mm 0.00 in0.0 mm 0.00 in0.0 mm
01:54 AM 75.9°F24.4°C 67.1°F19.5°C 74% 4.0 mph WSW6.4 kmh WSW 6.9 mph11.1 kmh 29.90 in1012.5 mb 0.00 in0.0 mm 0.00 in0.0 mm 0.00 in0.0 mm
01:49 AM 75.9°F24.4°C 67.1°F19.5°C 74% 2.9 mph WSW4.7 kmh WSW 6.9 mph11.1 kmh 29.90 in1012.5 mb 0.00 in0.0 mm 0.00 in0.0 mm 0.00 in0.0 mm
01:44 AM 76.3°F24.6°C 67.5°F19.7°C 74% 2.9 mph SW4.7 kmh SW 6.9 mph11.1 kmh 29.90 in1012.5 mb 0.00 in0.0 mm 0.00 in0.0 mm 0.00 in0.0 mm
01:39 AM 76.3°F24.6°C 67.5°F19.7°C 74% 2.9 mph SW4.7 kmh SW 6.9 mph11.1 kmh 29.89 in1012.2 mb 0.00 in0.0 mm 0.00 in0.0 mm 0.00 in0.0 mm
01:34 AM 76.5°F24.7°C 67.6°F19.8°C 74% 2.9 mph SW4.7 kmh SW 6.9 mph11.1 kmh 29.90 in1012.5 mb 0.00 in0.0 mm 0.00 in0.0 mm 0.00 in0.0 mm
01:29 AM 76.5°F24.7°C 67.6°F19.8°C 74% 2.9 mph WSW4.7 kmh WSW 6.9 mph11.1 kmh 29.89 in1012.2 mb 0.00 in0.0 mm 0.00 in0.0 mm 0.00 in0.0 mm
01:24 AM 76.5°F24.7°C 67.6°F19.8°C 74% 2.9 mph SW4.7 kmh SW 6.9 mph11.1 kmh 29.89 in1012.2 mb 0.00 in0.0 mm 0.00 in0.0 mm 0.00 in0.0 mm
01:19 AM 76.6°F24.8°C 67.6°F19.8°C 74% 2.9 mph SW4.7 kmh SW 8.1 mph13.0 kmh 29.89 in1012.2 mb 0.00 in0.0 mm 0.00 in0.0 mm 0.00 in0.0 mm
01:14 AM 76.6°F24.8°C 67.6°F19.8°C 74% 2.9 mph WSW4.7 kmh WSW 6.0 mph9.7 kmh 29.89 in1012.2 mb 0.00 in0.0 mm 0.00 in0.0 mm 0.00 in0.0 mm
01:09 AM 76.6°F24.8°C 67.6°F19.8°C 74% 2.9 mph W4.7 kmh W 6.9 mph11.1 kmh 29.89 in1012.2 mb 0.00 in0.0 mm 0.00 in0.0 mm 0.00 in0.0 mm
01:04 AM 76.6°F24.8°C 67.6°F19.8°C 74% 2.9 mph WSW4.7 kmh WSW 8.1 mph13.0 kmh 29.89 in1012.2 mb 0.00 in0.0 mm 0.00 in0.0 mm 0.00 in0.0 mm
12:59 AM 76.8°F24.9°C 67.8°F19.9°C 74% 2.9 mph WSW4.7 kmh WSW 6.0 mph9.7 kmh 29.89 in1012.2 mb 0.00 in0.0 mm 0.00 in0.0 mm 0.00 in0.0 mm
12:54 AM 76.6°F24.8°C 67.6°F19.8°C 74% 2.9 mph SW4.7 kmh SW 6.9 mph11.1 kmh 29.89 in1012.2 mb 0.00 in0.0 mm 0.00 in0.0 mm 0.00 in0.0 mm
12:49 AM 76.6°F24.8°C 67.3°F19.6°C 73% 2.9 mph SW4.7 kmh SW 8.1 mph13.0 kmh 29.90 in1012.5 mb 0.00 in0.0 mm 0.00 in0.0 mm 0.00 in0.0 mm
12:44 AM 76.6°F24.8°C 67.3°F19.6°C 73% 2.9 mph SW4.7 kmh SW 8.1 mph13.0 kmh 29.90 in1012.5 mb 0.00 in0.0 mm 0.00 in0.0 mm 0.00 in0.0 mm
12:39 AM 76.8°F24.9°C 67.5°F19.7°C 73% 2.9 mph WSW4.7 kmh WSW 8.1 mph13.0 kmh 29.90 in1012.5 mb 0.00 in0.0 mm 0.00 in0.0 mm 0.00 in0.0 mm
12:34 AM 76.8°F24.9°C 67.5°F19.7°C 73% 2.9 mph WSW4.7 kmh WSW 8.1 mph13.0 kmh 29.90 in1012.5 mb 0.00 in0.0 mm 0.00 in0.0 mm 0.00 in0.0 mm
12:29 AM 76.8°F24.9°C 67.5°F19.7°C 73% 2.9 mph WSW4.7 kmh WSW 8.1 mph13.0 kmh 29.91 in1012.9 mb 0.00 in0.0 mm 0.00 in0.0 mm 0.00 in0.0 mm
12:24 AM 77.0°F25.0°C 67.6°F19.8°C 73% 2.9 mph WSW4.7 kmh WSW 8.1 mph13.0 kmh 29.90 in1012.5 mb 0.00 in0.0 mm 0.00 in0.0 mm 0.00 in0.0 mm
12:19 AM 77.2°F25.1°C 67.5°F19.7°C 72% 2.9 mph WSW4.7 kmh WSW 6.0 mph9.7 kmh 29.90 in1012.5 mb 0.00 in0.0 mm 0.00 in0.0 mm 0.00 in0.0 mm
12:14 AM 77.2°F25.1°C 67.5°F19.7°C 72% 2.9 mph SW4.7 kmh SW 8.1 mph13.0 kmh 29.91 in1012.9 mb 0.00 in0.0 mm 0.00 in0.0 mm 0.00 in0.0 mm
12:09 AM 77.2°F25.1°C 67.5°F19.7°C 72% 2.9 mph WSW4.7 kmh WSW 6.9 mph11.1 kmh 29.91 in1012.9 mb 0.00 in0.0 mm 0.00 in0.0 mm 0.00 in0.0 mm
12:04 AM 77.4°F25.2°C 67.6°F19.8°C 72% 2.9 mph SSW4.7 kmh SSW 6.9 mph11.1 kmh 29.91 in1012.9 mb 0.00 in0.0 mm 0.00 in0.0 mm 0.00 in0.0 mm